Ubata, Brazil
Current Conditions -  °F | °C
As of 10:00 AM on Sunday 23 Nov 2014 (Local Time) from SBIL Reporting Station
Broken Clouds Broken Clouds  
Wind Chill: 81°   Ceiling: 7000
Heat Index: 85°   Visibility: 6mi
Dew Point: 73°   Wind: 10mph
Humidity: 79%   Direction: 50°NE
Pressure: 29.97"   Gusts: NA
Location:  14.21°S, 39.52°W
Report Text: SBIL 231300Z 05009KT 9999 FEW015 SCT030 BKN070 27/23 Q1015
Loading
Personal Weather Stations






























Interactive Weather Map New forecast layout! Learn more

10-Day Weather Forecast

Advertisements
Track Severe Weather on mobile